sensor_id;sensor_type;location;lat;lon;timestamp;pressure;altitude;pressure_sealevel;temperature;humidity
68230;BME280;55048;52.220;5.160;2023-10-19T00:02:05;99169.44;;;11.35;100.00
68230;BME280;55048;52.220;5.160;2023-10-19T00:04:31;99124.63;;;11.18;100.00
68230;BME280;55048;52.220;5.160;2023-10-19T00:07:00;99147.91;;;11.31;100.00
68230;BME280;55048;52.220;5.160;2023-10-19T00:09:25;99122.72;;;11.23;100.00
68230;BME280;55048;52.220;5.160;2023-10-19T00:11:55;99063.81;;;10.82;100.00
68230;BME280;55048;52.220;5.160;2023-10-19T00:14:20;99109.47;;;11.18;100.00
68230;BME280;55048;52.220;5.160;2023-10-19T00:16:46;99068.94;;;11.03;100.00
68230;BME280;55048;52.220;5.160;2023-10-19T00:19:34;99037.25;;;10.82;100.00
68230;BME280;55048;52.220;5.160;2023-10-19T00:22:05;99064.88;;;11.10;100.00
68230;BME280;55048;52.220;5.160;2023-10-19T00:24:35;99061.25;;;11.01;100.00
68230;BME280;55048;52.220;5.160;2023-10-19T00:27:01;99115.44;;;11.34;100.00
68230;BME280;55048;52.220;5.160;2023-10-19T00:29:35;98975.78;;;10.60;100.00
68230;BME280;55048;52.220;5.160;2023-10-19T00:32:05;99107.81;;;11.46;100.00
68230;BME280;55048;52.220;5.160;2023-10-19T00:34:32;99113.59;;;11.54;100.00
68230;BME280;55048;52.220;5.160;2023-10-19T00:36:58;99017.47;;;10.88;100.00
68230;BME280;55048;52.220;5.160;2023-10-19T00:39:34;99127.03;;;11.67;100.00
68230;BME280;55048;52.220;5.160;2023-10-19T00:42:08;99070.69;;;11.36;100.00
68230;BME280;55048;52.220;5.160;2023-10-19T00:44:34;99104.84;;;11.53;100.00
68230;BME280;55048;52.220;5.160;2023-10-19T00:47:07;99084.50;;;11.38;100.00
68230;BME280;55048;52.220;5.160;2023-10-19T00:49:38;99102.66;;;11.55;100.00
68230;BME280;55048;52.220;5.160;2023-10-19T00:52:06;99120.28;;;11.75;100.00
68230;BME280;55048;52.220;5.160;2023-10-19T00:54:45;99090.13;;;11.56;100.00
68230;BME280;55048;52.220;5.160;2023-10-19T00:57:15;99117.25;;;11.82;100.00
68230;BME280;55048;52.220;5.160;2023-10-19T00:59:45;99032.84;;;11.39;100.00
68230;BME280;55048;52.220;5.160;2023-10-19T01:02:25;99062.25;;;11.53;100.00
68230;BME280;55048;52.220;5.160;2023-10-19T01:04:52;99061.38;;;11.58;100.00
68230;BME280;55048;52.220;5.160;2023-10-19T01:07:32;99111.03;;;11.91;100.00
68230;BME280;55048;52.220;5.160;2023-10-19T01:10:04;99099.66;;;11.86;100.00
68230;BME280;55048;52.220;5.160;2023-10-19T01:12:31;98982.53;;;11.19;100.00
68230;BME280;55048;52.220;5.160;2023-10-19T01:17:34;98952.91;;;11.07;100.00
68230;BME280;55048;52.220;5.160;2023-10-19T01:20:07;99056.00;;;11.82;100.00
68230;BME280;55048;52.220;5.160;2023-10-19T01:23:01;99103.53;;;12.12;100.00
68230;BME280;55048;52.220;5.160;2023-10-19T01:25:46;99099.72;;;12.18;100.00
68230;BME280;55048;52.220;5.160;2023-10-19T01:28:21;99092.59;;;12.14;100.00
68230;BME280;55048;52.220;5.160;2023-10-19T01:30:50;99096.19;;;12.23;100.00
68230;BME280;55048;52.220;5.160;2023-10-19T01:33:19;99096.13;;;12.28;100.00
68230;BME280;55048;52.220;5.160;2023-10-19T01:35:46;99075.81;;;12.13;100.00
68230;BME280;55048;52.220;5.160;2023-10-19T01:38:30;99097.06;;;12.37;100.00
68230;BME280;55048;52.220;5.160;2023-10-19T01:41:04;99088.47;;;12.40;100.00
68230;BME280;55048;52.220;5.160;2023-10-19T01:43:50;99087.88;;;12.43;100.00
68230;BME280;55048;52.220;5.160;2023-10-19T01:46:19;99087.53;;;12.50;100.00
68230;BME280;55048;52.220;5.160;2023-10-19T01:48:54;99038.53;;;12.13;100.00
68230;BME280;55048;52.220;5.160;2023-10-19T01:51:22;99039.44;;;12.22;100.00
68230;BME280;55048;52.220;5.160;2023-10-19T01:53:49;99076.00;;;12.55;100.00
68230;BME280;55048;52.220;5.160;2023-10-19T01:56:15;98938.03;;;11.62;100.00
68230;BME280;55048;52.220;5.160;2023-10-19T01:58:47;99081.84;;;12.70;100.00
68230;BME280;55048;52.220;5.160;2023-10-19T02:01:14;99078.38;;;12.70;100.00
68230;BME280;55048;52.220;5.160;2023-10-19T02:03:46;99081.28;;;12.73;100.00
68230;BME280;55048;52.220;5.160;2023-10-19T02:06:14;99052.69;;;12.60;100.00
68230;BME280;55048;52.220;5.160;2023-10-19T02:08:46;99065.34;;;12.82;100.00
68230;BME280;55048;52.220;5.160;2023-10-19T02:11:15;99008.50;;;12.40;100.00
68230;BME280;55048;52.220;5.160;2023-10-19T02:13:46;99071.91;;;12.90;100.00
68230;BME280;55048;52.220;5.160;2023-10-19T02:16:21;99070.53;;;12.92;100.00
68230;BME280;55048;52.220;5.160;2023-10-19T02:18:49;98950.59;;;12.13;100.00
68230;BME280;55048;52.220;5.160;2023-10-19T02:21:15;99081.22;;;13.06;100.00
68230;BME280;55048;52.220;5.160;2023-10-19T02:23:41;99078.16;;;13.13;100.00
68230;BME280;55048;52.220;5.160;2023-10-19T02:26:09;99085.84;;;13.14;100.00
68230;BME280;55048;52.220;5.160;2023-10-19T02:28:39;99013.31;;;12.85;100.00
68230;BME280;55048;52.220;5.160;2023-10-19T02:31:05;99084.63;;;13.25;100.00
68230;BME280;55048;52.220;5.160;2023-10-19T02:33:44;99041.69;;;13.08;100.00
68230;BME280;55048;52.220;5.160;2023-10-19T02:36:17;98926.13;;;12.39;100.00
68230;BME280;55048;52.220;5.160;2023-10-19T02:38:45;99061.88;;;13.28;100.00
68230;BME280;55048;52.220;5.160;2023-10-19T02:41:17;99065.63;;;13.41;100.00
68230;BME280;55048;52.220;5.160;2023-10-19T02:43:44;99048.63;;;13.37;100.00
68230;BME280;55048;52.220;5.160;2023-10-19T02:46:16;98918.84;;;12.58;100.00
68230;BME280;55048;52.220;5.160;2023-10-19T02:48:45;99060.06;;;13.51;100.00
68230;BME280;55048;52.220;5.160;2023-10-19T02:51:12;98892.06;;;12.49;100.00
68230;BME280;55048;52.220;5.160;2023-10-19T02:53:41;98947.69;;;12.84;100.00
68230;BME280;55048;52.220;5.160;2023-10-19T02:56:15;99062.13;;;13.68;100.00
68230;BME280;55048;52.220;5.160;2023-10-19T02:58:45;99055.69;;;13.69;100.00
68230;BME280;55048;52.220;5.160;2023-10-19T03:01:23;98993.06;;;13.39;100.00
68230;BME280;55048;52.220;5.160;2023-10-19T03:03:55;99029.22;;;13.59;100.00
68230;BME280;55048;52.220;5.160;2023-10-19T03:06:26;99045.09;;;13.77;100.00
68230;BME280;55048;52.220;5.160;2023-10-19T03:08:57;99039.94;;;13.81;100.00
68230;BME280;55048;52.220;5.160;2023-10-19T03:11:51;99033.22;;;13.70;100.00
68230;BME280;55048;52.220;5.160;2023-10-19T03:14:22;98720.31;;;11.73;100.00
68230;BME280;55048;52.220;5.160;2023-10-19T03:16:50;99013.75;;;13.69;100.00
68230;BME280;55048;52.220;5.160;2023-10-19T03:19:16;98929.16;;;13.15;100.00
68230;BME280;55048;52.220;5.160;2023-10-19T03:21:41;99006.34;;;13.66;100.00
68230;BME280;55048;52.220;5.160;2023-10-19T03:24:14;99037.16;;;13.86;100.00
68230;BME280;55048;52.220;5.160;2023-10-19T03:27:01;99022.81;;;13.82;100.00
68230;BME280;55048;52.220;5.160;2023-10-19T03:29:26;99020.72;;;13.79;100.00
68230;BME280;55048;52.220;5.160;2023-10-19T03:31:57;98980.81;;;13.60;100.00
68230;BME280;55048;52.220;5.160;2023-10-19T03:34:24;98984.16;;;13.66;100.00
68230;BME280;55048;52.220;5.160;2023-10-19T03:36:49;99041.72;;;14.08;100.00
68230;BME280;55048;52.220;5.160;2023-10-19T03:39:19;98986.75;;;13.71;100.00
68230;BME280;55048;52.220;5.160;2023-10-19T03:41:46;98797.59;;;12.56;100.00
68230;BME280;55048;52.220;5.160;2023-10-19T03:44:12;98850.66;;;12.93;100.00
68230;BME280;55048;52.220;5.160;2023-10-19T03:46:57;99008.00;;;13.98;100.00
68230;BME280;55048;52.220;5.160;2023-10-19T03:49:29;98926.06;;;13.49;100.00
68230;BME280;55048;52.220;5.160;2023-10-19T03:52:03;98948.19;;;13.63;100.00
68230;BME280;55048;52.220;5.160;2023-10-19T03:54:35;98952.97;;;13.75;100.00
68230;BME280;55048;52.220;5.160;2023-10-19T03:57:06;99022.94;;;14.22;100.00
68230;BME280;55048;52.220;5.160;2023-10-19T03:59:52;98912.28;;;13.56;100.00
68230;BME280;55048;52.220;5.160;2023-10-19T04:02:21;98967.69;;;13.86;100.00
68230;BME280;55048;52.220;5.160;2023-10-19T04:04:47;99019.66;;;14.25;100.00
68230;BME280;55048;52.220;5.160;2023-10-19T04:07:14;99022.84;;;14.27;100.00
68230;BME280;55048;52.220;5.160;2023-10-19T04:09:50;98944.72;;;13.63;100.00
68230;BME280;55048;52.220;5.160;2023-10-19T04:12:27;99019.19;;;14.23;100.00
68230;BME280;55048;52.220;5.160;2023-10-19T04:14:56;98954.44;;;13.81;100.00
68230;BME280;55048;52.220;5.160;2023-10-19T04:17:22;99008.84;;;14.08;100.00
68230;BME280;55048;52.220;5.160;2023-10-19T04:19:51;99016.28;;;14.11;100.00
68230;BME280;55048;52.220;5.160;2023-10-19T04:22:18;98952.81;;;13.71;100.00
68230;BME280;55048;52.220;5.160;2023-10-19T04:24:53;99015.16;;;14.12;100.00
68230;BME280;55048;52.220;5.160;2023-10-19T04:27:18;99014.38;;;14.11;100.00
68230;BME280;55048;52.220;5.160;2023-10-19T04:29:48;98977.97;;;13.79;100.00
68230;BME280;55048;52.220;5.160;2023-10-19T04:32:15;98970.41;;;13.72;100.00
68230;BME280;55048;52.220;5.160;2023-10-19T04:34:48;98914.53;;;13.40;100.00
68230;BME280;55048;52.220;5.160;2023-10-19T04:37:13;98878.75;;;13.13;100.00
68230;BME280;55048;52.220;5.160;2023-10-19T04:39:43;98946.81;;;13.52;100.00
68230;BME280;55048;52.220;5.160;2023-10-19T04:42:09;99001.19;;;13.92;100.00
68230;BME280;55048;52.220;5.160;2023-10-19T04:44:34;98806.75;;;12.49;100.00
68230;BME280;55048;52.220;5.160;2023-10-19T04:47:00;98995.66;;;13.89;100.00
68230;BME280;55048;52.220;5.160;2023-10-19T04:49:25;98957.94;;;13.68;100.00
68230;BME280;55048;52.220;5.160;2023-10-19T04:51:50;98963.09;;;13.64;100.00
68230;BME280;55048;52.220;5.160;2023-10-19T04:54:16;99016.31;;;13.97;100.00
68230;BME280;55048;52.220;5.160;2023-10-19T04:56:41;98977.31;;;13.73;100.00
68230;BME280;55048;52.220;5.160;2023-10-19T04:59:06;98981.44;;;13.79;100.00
68230;BME280;55048;52.220;5.160;2023-10-19T05:01:32;99014.44;;;13.97;100.00
68230;BME280;55048;52.220;5.160;2023-10-19T05:04:00;98999.78;;;13.72;100.00
68230;BME280;55048;52.220;5.160;2023-10-19T05:06:26;99025.31;;;14.01;100.00
68230;BME280;55048;52.220;5.160;2023-10-19T05:08:51;98983.75;;;13.72;100.00
68230;BME280;55048;52.220;5.160;2023-10-19T05:11:20;98788.19;;;12.58;100.00
68230;BME280;55048;52.220;5.160;2023-10-19T05:13:45;98809.72;;;12.62;100.00
68230;BME280;55048;52.220;5.160;2023-10-19T05:16:10;98977.50;;;13.77;100.00
68230;BME280;55048;52.220;5.160;2023-10-19T05:18:36;98965.38;;;13.71;100.00
68230;BME280;55048;52.220;5.160;2023-10-19T05:21:01;99004.38;;;13.94;100.00
68230;BME280;55048;52.220;5.160;2023-10-19T05:23:27;99039.09;;;14.17;100.00
68230;BME280;55048;52.220;5.160;2023-10-19T05:26:00;99043.06;;;14.19;100.00
68230;BME280;55048;52.220;5.160;2023-10-19T05:28:25;98891.22;;;13.18;100.00
68230;BME280;55048;52.220;5.160;2023-10-19T05:30:54;98734.06;;;12.08;100.00
68230;BME280;55048;52.220;5.160;2023-10-19T05:33:44;98678.31;;;11.84;100.00
68230;BME280;55048;52.220;5.160;2023-10-19T05:36:09;99032.63;;;14.09;100.00
68230;BME280;55048;52.220;5.160;2023-10-19T05:38:35;99014.63;;;14.01;100.00
68230;BME280;55048;52.220;5.160;2023-10-19T05:41:00;99039.41;;;14.15;100.00
68230;BME280;55048;52.220;5.160;2023-10-19T05:43:26;99051.44;;;14.26;100.00
68230;BME280;55048;52.220;5.160;2023-10-19T05:45:51;99036.94;;;14.19;100.00
68230;BME280;55048;52.220;5.160;2023-10-19T05:48:17;98960.88;;;13.58;100.00
68230;BME280;55048;52.220;5.160;2023-10-19T05:50:50;98958.84;;;13.63;100.00
68230;BME280;55048;52.220;5.160;2023-10-19T05:53:18;99016.81;;;13.99;100.00
68230;BME280;55048;52.220;5.160;2023-10-19T05:56:10;98952.53;;;13.59;100.00
68230;BME280;55048;52.220;5.160;2023-10-19T05:58:45;99022.72;;;14.10;100.00
68230;BME280;55048;52.220;5.160;2023-10-19T06:01:13;99072.44;;;14.33;100.00
68230;BME280;55048;52.220;5.160;2023-10-19T06:03:46;99046.41;;;14.25;100.00
68230;BME280;55048;52.220;5.160;2023-10-19T06:06:27;99055.59;;;14.33;100.00
68230;BME280;55048;52.220;5.160;2023-10-19T06:08:53;98981.03;;;13.86;100.00
68230;BME280;55048;52.220;5.160;2023-10-19T06:11:20;98953.59;;;13.72;100.00
68230;BME280;55048;52.220;5.160;2023-10-19T06:13:45;99007.41;;;14.01;100.00
68230;BME280;55048;52.220;5.160;2023-10-19T06:16:11;99066.03;;;14.43;100.00
68230;BME280;55048;52.220;5.160;2023-10-19T06:18:36;99046.41;;;14.25;100.00
68230;BME280;55048;52.220;5.160;2023-10-19T06:21:02;99053.38;;;14.35;100.00
68230;BME280;55048;52.220;5.160;2023-10-19T06:23:29;98948.38;;;13.67;100.00
68230;BME280;55048;52.220;5.160;2023-10-19T06:25:56;99004.59;;;14.07;100.00
68230;BME280;55048;52.220;5.160;2023-10-19T06:28:22;99054.69;;;14.37;100.00
68230;BME280;55048;52.220;5.160;2023-10-19T06:30:47;99046.28;;;14.30;100.00
68230;BME280;55048;52.220;5.160;2023-10-19T06:33:13;99073.38;;;14.51;100.00
68230;BME280;55048;52.220;5.160;2023-10-19T06:35:39;99069.91;;;14.50;100.00
68230;BME280;55048;52.220;5.160;2023-10-19T06:38:05;99067.22;;;14.50;100.00
68230;BME280;55048;52.220;5.160;2023-10-19T06:40:34;99079.97;;;14.53;100.00
68230;BME280;55048;52.220;5.160;2023-10-19T06:43:01;99073.97;;;14.48;100.00
68230;BME280;55048;52.220;5.160;2023-10-19T06:45:28;99025.81;;;14.25;100.00
68230;BME280;55048;52.220;5.160;2023-10-19T06:47:57;99069.00;;;14.55;100.00
68230;BME280;55048;52.220;5.160;2023-10-19T06:50:26;99060.50;;;14.39;100.00
68230;BME280;55048;52.220;5.160;2023-10-19T06:52:52;98988.16;;;13.91;100.00
68230;BME280;55048;52.220;5.160;2023-10-19T06:55:19;98964.41;;;13.67;100.00
68230;BME280;55048;52.220;5.160;2023-10-19T06:57:47;99086.25;;;14.49;100.00
68230;BME280;55048;52.220;5.160;2023-10-19T07:00:14;99084.56;;;14.39;100.00
68230;BME280;55048;52.220;5.160;2023-10-19T07:02:44;99045.56;;;14.16;100.00
68230;BME280;55048;52.220;5.160;2023-10-19T07:05:12;99104.72;;;14.59;100.00
68230;BME280;55048;52.220;5.160;2023-10-19T07:07:48;99091.59;;;14.49;100.00
68230;BME280;55048;52.220;5.160;2023-10-19T07:10:15;99106.78;;;14.62;100.00
68230;BME280;55048;52.220;5.160;2023-10-19T07:12:43;99103.13;;;14.58;100.00
68230;BME280;55048;52.220;5.160;2023-10-19T07:15:09;99087.81;;;14.50;100.00
68230;BME280;55048;52.220;5.160;2023-10-19T07:17:43;99092.56;;;14.53;100.00
68230;BME280;55048;52.220;5.160;2023-10-19T07:20:10;99114.69;;;14.67;100.00
68230;BME280;55048;52.220;5.160;2023-10-19T07:22:50;99082.06;;;14.57;100.00
68230;BME280;55048;52.220;5.160;2023-10-19T07:25:16;99104.31;;;14.66;100.00
68230;BME280;55048;52.220;5.160;2023-10-19T07:27:46;99071.19;;;14.39;100.00
68230;BME280;55048;52.220;5.160;2023-10-19T07:30:11;99131.19;;;14.83;100.00
68230;BME280;55048;52.220;5.160;2023-10-19T07:32:40;99120.63;;;14.87;100.00
68230;BME280;55048;52.220;5.160;2023-10-19T07:35:06;99095.03;;;14.72;100.00
68230;BME280;55048;52.220;5.160;2023-10-19T07:37:31;99127.69;;;14.83;100.00
68230;BME280;55048;52.220;5.160;2023-10-19T07:39:57;99078.88;;;14.54;100.00
68230;BME280;55048;52.220;5.160;2023-10-19T07:42:23;99103.59;;;14.83;100.00
68230;BME280;55048;52.220;5.160;2023-10-19T07:44:49;99086.81;;;14.68;100.00
68230;BME280;55048;52.220;5.160;2023-10-19T07:47:14;99107.09;;;14.83;100.00
68230;BME280;55048;52.220;5.160;2023-10-19T07:49:40;99103.00;;;14.86;100.00
68230;BME280;55048;52.220;5.160;2023-10-19T07:52:06;99124.31;;;14.99;100.00
68230;BME280;55048;52.220;5.160;2023-10-19T07:54:35;99118.78;;;14.96;100.00
68230;BME280;55048;52.220;5.160;2023-10-19T07:57:10;99117.22;;;14.95;100.00
68230;BME280;55048;52.220;5.160;2023-10-19T07:59:37;99056.28;;;14.61;100.00
68230;BME280;55048;52.220;5.160;2023-10-19T08:02:03;99098.94;;;14.88;100.00
68230;BME280;55048;52.220;5.160;2023-10-19T08:04:29;99105.78;;;15.03;100.00
68230;BME280;55048;52.220;5.160;2023-10-19T08:06:56;99102.59;;;15.01;100.00
68230;BME280;55048;52.220;5.160;2023-10-19T08:09:22;99098.53;;;15.03;100.00
68230;BME280;55048;52.220;5.160;2023-10-19T08:11:49;99119.19;;;15.12;100.00
68230;BME280;55048;52.220;5.160;2023-10-19T08:14:14;99118.75;;;15.18;100.00
68230;BME280;55048;52.220;5.160;2023-10-19T08:16:40;99112.28;;;15.19;100.00
68230;BME280;55048;52.220;5.160;2023-10-19T08:19:07;99122.56;;;15.26;100.00
68230;BME280;55048;52.220;5.160;2023-10-19T08:21:32;99095.56;;;15.14;100.00
68230;BME280;55048;52.220;5.160;2023-10-19T08:23:59;99124.00;;;15.32;100.00
68230;BME280;55048;52.220;5.160;2023-10-19T08:26:30;99124.00;;;15.32;100.00
68230;BME280;55048;52.220;5.160;2023-10-19T08:28:55;99111.72;;;15.31;100.00
68230;BME280;55048;52.220;5.160;2023-10-19T08:31:21;99130.78;;;15.38;100.00
68230;BME280;55048;52.220;5.160;2023-10-19T08:33:46;99123.06;;;15.37;100.00
68230;BME280;55048;52.220;5.160;2023-10-19T08:36:19;99115.19;;;15.31;100.00
68230;BME280;55048;52.220;5.160;2023-10-19T08:38:46;99120.06;;;15.38;100.00
68230;BME280;55048;52.220;5.160;2023-10-19T08:41:13;99112.03;;;15.38;100.00
68230;BME280;55048;52.220;5.160;2023-10-19T08:43:39;99124.84;;;15.50;100.00
68230;BME280;55048;52.220;5.160;2023-10-19T08:46:06;99106.09;;;15.50;100.00
68230;BME280;55048;52.220;5.160;2023-10-19T08:48:35;99117.63;;;15.59;100.00
68230;BME280;55048;52.220;5.160;2023-10-19T08:51:03;99104.38;;;15.54;100.00
68230;BME280;55048;52.220;5.160;2023-10-19T08:53:34;99087.19;;;15.46;100.00
68230;BME280;55048;52.220;5.160;2023-10-19T08:56:05;99115.97;;;15.72;100.00
68230;BME280;55048;52.220;5.160;2023-10-19T08:58:32;99101.75;;;15.71;100.00
68230;BME280;55048;52.220;5.160;2023-10-19T09:00:57;99114.09;;;15.81;100.00
68230;BME280;55048;52.220;5.160;2023-10-19T09:03:25;99113.28;;;15.80;100.00
68230;BME280;55048;52.220;5.160;2023-10-19T09:05:51;99099.75;;;15.86;100.00
68230;BME280;55048;52.220;5.160;2023-10-19T09:08:18;99090.78;;;15.90;100.00
68230;BME280;55048;52.220;5.160;2023-10-19T09:10:45;99102.75;;;16.01;100.00
68230;BME280;55048;52.220;5.160;2023-10-19T09:13:11;99044.06;;;15.65;100.00
68230;BME280;55048;52.220;5.160;2023-10-19T09:15:38;99110.66;;;16.24;100.00
68230;BME280;55048;52.220;5.160;2023-10-19T09:18:15;99103.56;;;16.28;100.00
68230;BME280;55048;52.220;5.160;2023-10-19T09:20:42;99090.94;;;16.37;100.00
68230;BME280;55048;52.220;5.160;2023-10-19T09:23:27;99067.59;;;16.29;100.00
68230;BME280;55048;52.220;5.160;2023-10-19T09:25:56;99084.63;;;16.42;100.00
68230;BME280;55048;52.220;5.160;2023-10-19T09:28:22;99105.09;;;16.64;100.00
68230;BME280;55048;52.220;5.160;2023-10-19T09:30:49;99102.09;;;16.74;100.00
68230;BME280;55048;52.220;5.160;2023-10-19T09:33:16;99096.41;;;16.84;100.00
68230;BME280;55048;52.220;5.160;2023-10-19T09:35:50;99102.47;;;17.11;100.00
68230;BME280;55048;52.220;5.160;2023-10-19T09:38:19;99117.56;;;17.32;100.00
68230;BME280;55048;52.220;5.160;2023-10-19T09:40:47;99084.25;;;17.25;100.00
68230;BME280;55048;52.220;5.160;2023-10-19T09:43:44;99099.91;;;17.52;100.00
68230;BME280;55048;52.220;5.160;2023-10-19T09:46:11;99077.38;;;17.45;100.00
68230;BME280;55048;52.220;5.160;2023-10-19T09:48:41;99013.25;;;17.05;100.00
68230;BME280;55048;52.220;5.160;2023-10-19T09:51:07;99097.53;;;17.59;100.00
68230;BME280;55048;52.220;5.160;2023-10-19T09:53:34;99053.22;;;17.36;100.00
68230;BME280;55048;52.220;5.160;2023-10-19T09:56:02;99051.78;;;17.39;100.00
68230;BME280;55048;52.220;5.160;2023-10-19T10:01:10;99038.28;;;17.47;100.00
68230;BME280;55048;52.220;5.160;2023-10-19T10:03:47;99023.63;;;17.45;100.00
68230;BME280;55048;52.220;5.160;2023-10-19T10:06:27;98935.28;;;16.93;100.00
68230;BME280;55048;52.220;5.160;2023-10-19T10:08:53;99088.47;;;17.94;100.00
68230;BME280;55048;52.220;5.160;2023-10-19T10:11:24;99033.59;;;17.65;100.00
68230;BME280;55048;52.220;5.160;2023-10-19T10:14:19;99009.69;;;17.22;100.00
68230;BME280;55048;52.220;5.160;2023-10-19T10:16:46;98998.22;;;17.33;100.00
68230;BME280;55048;52.220;5.160;2023-10-19T10:19:20;99091.09;;;17.81;100.00
68230;BME280;55048;52.220;5.160;2023-10-19T10:22:04;99077.69;;;17.73;100.00
68230;BME280;55048;52.220;5.160;2023-10-19T10:24:40;98961.31;;;16.92;100.00
68230;BME280;55048;52.220;5.160;2023-10-19T10:27:06;99088.28;;;17.78;100.00
68230;BME280;55048;52.220;5.160;2023-10-19T10:29:31;99073.91;;;17.74;100.00
68230;BME280;55048;52.220;5.160;2023-10-19T10:31:58;99088.22;;;17.87;100.00
68230;BME280;55048;52.220;5.160;2023-10-19T10:37:11;99068.88;;;17.64;100.00
68230;BME280;55048;52.220;5.160;2023-10-19T10:39:38;99077.53;;;17.69;100.00
68230;BME280;55048;52.220;5.160;2023-10-19T10:42:05;99056.88;;;17.61;100.00
68230;BME280;55048;52.220;5.160;2023-10-19T10:44:47;99036.28;;;17.44;100.00
68230;BME280;55048;52.220;5.160;2023-10-19T10:47:17;99048.41;;;17.50;100.00
68230;BME280;55048;52.220;5.160;2023-10-19T10:49:53;99025.88;;;17.34;100.00
68230;BME280;55048;52.220;5.160;2023-10-19T10:52:45;99073.00;;;17.61;100.00
68230;BME280;55048;52.220;5.160;2023-10-19T10:55:13;99055.34;;;17.51;100.00
68230;BME280;55048;52.220;5.160;2023-10-19T10:57:40;99024.31;;;17.33;100.00
68230;BME280;55048;52.220;5.160;2023-10-19T11:00:11;99055.28;;;17.60;100.00
68230;BME280;55048;52.220;5.160;2023-10-19T11:02:59;99020.16;;;17.44;100.00
68230;BME280;55048;52.220;5.160;2023-10-19T11:05:25;99045.91;;;17.66;100.00
68230;BME280;55048;52.220;5.160;2023-10-19T11:10:31;99052.47;;;17.86;100.00
68230;BME280;55048;52.220;5.160;2023-10-19T11:13:22;99035.66;;;17.89;100.00
68230;BME280;55048;52.220;5.160;2023-10-19T11:15:51;99015.41;;;17.92;100.00
68230;BME280;55048;52.220;5.160;2023-10-19T11:18:37;99037.38;;;18.27;100.00
68230;BME280;55048;52.220;5.160;2023-10-19T11:21:11;99037.78;;;18.38;100.00
68230;BME280;55048;52.220;5.160;2023-10-19T11:23:47;99032.47;;;18.29;100.00
68230;BME280;55048;52.220;5.160;2023-10-19T11:26:19;98997.88;;;18.06;100.00
68230;BME280;55048;52.220;5.160;2023-10-19T11:28:44;99033.75;;;18.44;100.00
68230;BME280;55048;52.220;5.160;2023-10-19T11:31:18;99042.06;;;18.51;100.00
68230;BME280;55048;52.220;5.160;2023-10-19T11:33:45;99039.63;;;18.58;100.00
68230;BME280;55048;52.220;5.160;2023-10-19T11:36:13;99028.50;;;18.47;100.00
68230;BME280;55048;52.220;5.160;2023-10-19T11:38:43;99041.19;;;18.47;100.00
68230;BME280;55048;52.220;5.160;2023-10-19T11:41:10;99038.66;;;18.42;100.00
68230;BME280;55048;52.220;5.160;2023-10-19T11:43:35;99045.03;;;18.37;100.00
68230;BME280;55048;52.220;5.160;2023-10-19T11:46:02;99030.56;;;18.29;100.00
68230;BME280;55048;52.220;5.160;2023-10-19T11:48:30;99014.44;;;18.29;100.00
68230;BME280;55048;52.220;5.160;2023-10-19T11:50:56;99016.44;;;18.32;100.00
68230;BME280;55048;52.220;5.160;2023-10-19T11:53:22;99021.72;;;18.41;100.00
68230;BME280;55048;52.220;5.160;2023-10-19T11:55:47;99031.28;;;18.51;100.00
68230;BME280;55048;52.220;5.160;2023-10-19T11:58:16;98968.34;;;18.31;100.00
68230;BME280;55048;52.220;5.160;2023-10-19T12:00:41;98987.03;;;18.60;100.00
68230;BME280;55048;52.220;5.160;2023-10-19T12:03:12;98988.69;;;18.65;100.00
68230;BME280;55048;52.220;5.160;2023-10-19T12:05:39;98775.91;;;17.30;100.00
68230;BME280;55048;52.220;5.160;2023-10-19T12:08:05;98977.47;;;18.63;100.00
68230;BME280;55048;52.220;5.160;2023-10-19T12:10:31;99009.16;;;18.78;100.00
68230;BME280;55048;52.220;5.160;2023-10-19T12:13:06;98906.53;;;18.22;100.00
68230;BME280;55048;52.220;5.160;2023-10-19T12:15:33;99008.84;;;18.92;100.00
68230;BME280;55048;52.220;5.160;2023-10-19T12:17:59;99010.75;;;18.92;100.00
68230;BME280;55048;52.220;5.160;2023-10-19T12:20:25;98845.28;;;17.82;100.00
68230;BME280;55048;52.220;5.160;2023-10-19T12:22:51;98920.13;;;18.26;100.00
68230;BME280;55048;52.220;5.160;2023-10-19T12:25:20;98956.03;;;18.54;100.00
68230;BME280;55048;52.220;5.160;2023-10-19T12:27:54;98931.13;;;18.33;100.00
68230;BME280;55048;52.220;5.160;2023-10-19T12:30:20;98946.28;;;18.38;100.00
68230;BME280;55048;52.220;5.160;2023-10-19T12:32:45;98964.13;;;18.54;100.00
68230;BME280;55048;52.220;5.160;2023-10-19T12:35:15;98969.84;;;18.53;100.00
68230;BME280;55048;52.220;5.160;2023-10-19T12:37:40;98888.09;;;17.88;100.00
68230;BME280;55048;52.220;5.160;2023-10-19T12:40:12;98946.25;;;18.25;100.00
68230;BME280;55048;52.220;5.160;2023-10-19T12:42:58;98961.94;;;18.35;100.00
68230;BME280;55048;52.220;5.160;2023-10-19T12:45:28;98889.22;;;17.99;100.00
68230;BME280;55048;52.220;5.160;2023-10-19T12:47:53;98926.28;;;18.26;100.00
68230;BME280;55048;52.220;5.160;2023-10-19T12:50:20;98968.59;;;18.50;100.00
68230;BME280;55048;52.220;5.160;2023-10-19T12:52:49;98928.66;;;18.28;100.00
68230;BME280;55048;52.220;5.160;2023-10-19T12:55:16;98871.75;;;17.93;100.00
68230;BME280;55048;52.220;5.160;2023-10-19T12:57:41;98760.50;;;17.19;100.00
68230;BME280;55048;52.220;5.160;2023-10-19T13:00:07;98914.16;;;18.20;100.00
68230;BME280;55048;52.220;5.160;2023-10-19T13:02:52;98928.97;;;18.26;100.00
68230;BME280;55048;52.220;5.160;2023-10-19T13:05:29;98881.94;;;17.87;100.00
68230;BME280;55048;52.220;5.160;2023-10-19T13:07:56;98944.56;;;18.21;100.00
68230;BME280;55048;52.220;5.160;2023-10-19T13:10:27;98900.97;;;17.94;100.00
68230;BME280;55048;52.220;5.160;2023-10-19T13:12:54;98975.97;;;18.41;100.00
68230;BME280;55048;52.220;5.160;2023-10-19T13:15:20;98964.88;;;18.30;100.00